Data for 04/01/2015

Time Sea-Level Adjusted Pressure Absolute Pressure Temperature Relative Humidity Dew Point   
(mb) (inHg) (mb) (inHg) (C) (F) (%) (C) (F)
00:05 1013 29.91 843 24.89 0.2 32.4 94 -0.6 30.9
00:10 1013 29.91 843 24.89 0.2 32.3 94 -0.7 30.7
00:15 1013 29.91 843 24.89 0.1 32.1 94 -0.8 30.6
00:20 1014 29.94 843 24.89 0 32.1 94 -0.8 30.6
00:25 1014 29.94 843 24.89 0 32 94 -0.8 30.5
00:30 1014 29.94 843 24.89 -0.1 31.8 94 -1 30.2
00:35 1014 29.94 843 24.89 -0.2 31.7 94 -1.1 30
00:40 1015 29.97 844 24.92 -0.2 31.6 93 -1.2 29.9
00:45 1015 29.97 844 24.92 -0.3 31.5 93 -1.2 29.8
00:50 1014 29.94 844 24.92 -0.4 31.3 93 -1.3 29.6
00:55 1014 29.94 844 24.92 -0.4 31.2 93 -1.4 29.5
01:00 1014 29.94 843 24.89 -0.6 31 93 -1.6 29.2
01:05 1014 29.94 844 24.92 -0.7 30.8 93 -1.6 29.1
01:10 1014 29.94 844 24.92 -0.5 31.1 91 -1.8 28.7
01:15 1014 29.94 843 24.89 -0.2 31.6 86 -2.3 27.9
01:20 1014 29.94 843 24.89 -0.3 31.5 89 -1.8 28.8
01:25 1014 29.94 843 24.89 -0.5 31.2 90 -1.9 28.6
01:30 1014 29.94 843 24.89 -0.5 31.2 91 -1.8 28.7
01:35 1014 29.94 843 24.89 -0.5 31.1 91 -1.9 28.7
01:40 1014 29.94 843 24.89 -0.5 31.2 91 -1.7 28.9
01:45 1014 29.94 844 24.92 -0.5 31.2 92 -1.6 29
01:50 1014 29.94 844 24.92 -0.5 31.1 92 -1.7 29
01:55 1014 29.94 844 24.92 -0.5 31.1 92 -1.6 29.1
02:00 1014 29.94 844 24.92 -0.5 31.1 92 -1.6 29.2
02:05 1014 29.94 843 24.89 -0.6 31 93 -1.6 29.1
02:10 1014 29.94 844 24.92 -0.5 31 93 -1.5 29.2
02:15 1014 29.94 844 24.92 -0.5 31 92 -1.6 29.1
02:20 1014 29.94 844 24.92 -0.5 31 92 -1.7 29
02:25 1014 29.94 844 24.92 -0.6 30.8 91 -1.9 28.6
02:30 1014 29.94 844 24.92 -0.8 30.6 90 -2.2 28
02:35 1014 29.94 844 24.92 -0.8 30.5 90 -2.3 27.9
02:40 1014 29.94 843 24.89 -0.9 30.3 88 -2.6 27.3
02:45 1014 29.94 843 24.89 -1 30.2 89 -2.6 27.3
02:50 1014 29.94 843 24.89 -1.1 30.1 90 -2.5 27.5
02:55 1014 29.94 843 24.89 -1.1 30.1 90 -2.4 27.6
03:00 1014 29.94 843 24.89 -1 30.1 89 -2.6 27.4
03:05 1014 29.94 843 24.89 -1 30.2 89 -2.7 27.2
03:10 1014 29.94 843 24.89 -1 30.3 88 -2.8 27
03:15 1014 29.94 843 24.89 -0.9 30.4 86 -2.9 26.8
03:20 1014 29.94 843 24.89 -0.9 30.4 88 -2.7 27.2
03:25 1014 29.94 843 24.89 -0.9 30.3 88 -2.7 27.2
03:30 1014 29.94 843 24.89 -1 30.3 87 -2.9 26.8
03:35 1014 29.94 843 24.89 -0.9 30.4 86 -3 26.6
03:40 1014 29.94 843 24.89 -0.8 30.6 84 -3.2 26.3
03:45 1014 29.94 843 24.89 -0.7 30.8 82 -3.4 25.9
03:50 1014 29.94 843 24.89 -0.5 31.1 79 -3.7 25.3
03:55 1014 29.94 843 24.89 -0.4 31.4 77 -3.9 24.9
04:00 1014 29.94 843 24.89 -0.2 31.7 73 -4.4 24.2
04:05 1014 29.94 843 24.89 -0.1 31.8 75 -4 24.8
04:10 1014 29.94 843 24.89 -0.2 31.7 73 -4.4 24.2
04:15 1014 29.94 843 24.89 -0.1 31.8 73 -4.3 24.3
04:20 1014 29.94 843 24.89 -0.2 31.6 76 -4 24.7
04:25 1014 29.94 844 24.92 -0.3 31.5 78 -3.6 25.5
04:30 1014 29.94 844 24.92 -0.2 31.6 79 -3.5 25.8
04:35 1014 29.94 844 24.92 -0.2 31.6 76 -3.9 24.9
04:40 1014 29.94 844 24.92 -0.2 31.7 71 -4.9 23.2
04:45 1014 29.94 844 24.92 0.1 32.1 70 -4.8 23.4
04:50 1014 29.94 844 24.92 0.1 32.1 72 -4.3 24.2
04:55 1014 29.94 844 24.92 -0 32 72 -4.5 23.9
05:00 1015 29.97 844 24.92 -0.1 31.8 71 -4.7 23.6
05:05 1015 29.97 844 24.92 -0.2 31.6 72 -4.6 23.8
05:10 1015 29.97 844 24.92 -0.3 31.5 73 -4.6 23.8
05:15 1015 29.97 844 24.92 -0.3 31.4 73 -4.6 23.7
05:20 1015 29.97 844 24.92 -0.4 31.3 73 -4.6 23.7
05:25 1015 29.97 844 24.92 -0.4 31.3 73 -4.6 23.8
05:30 1015 29.97 844 24.92 -0.3 31.5 73 -4.6 23.6
05:35 1015 29.97 844 24.92 -0.3 31.5 72 -4.8 23.4
05:40 1015 29.97 844 24.92 -0.3 31.4 72 -4.7 23.5
05:45 1015 29.97 844 24.92 -0.3 31.4 73 -4.6 23.6
05:50 1015 29.97 844 24.92 -0.4 31.2 72 -4.8 23.3
05:55 1015 29.97 844 24.92 -0.5 31.1 72 -5 23
06:00 1015 29.97 844 24.92 -0.4 31.3 69 -5.4 22.3
06:05 1015 29.97 844 24.92 -0.3 31.4 71 -5 22.9
06:10 1015 29.97 845 24.95 -0.4 31.4 70 -5.2 22.6
06:15 1015 29.97 845 24.95 -0.3 31.4 72 -4.8 23.3
06:20 1016 30 845 24.95 -0.4 31.4 74 -4.5 23.9
06:25 1016 30 845 24.95 -0.4 31.3 74 -4.5 23.8
06:30 1016 30 845 24.95 -0.3 31.4 73 -4.6 23.7
06:35 1016 30 845 24.95 -0.3 31.4 71 -5 23
06:40 1016 30 845 24.95 -0.4 31.3 69 -5.5 22.2
06:45 1016 30 845 24.95 -0.5 31.2 68 -5.6 21.9
06:50 1016 30 845 24.95 -0.6 31 67 -5.9 21.5
06:55 1016 30 845 24.95 -0.5 31 66 -6.1 20.9
07:00 1016 30 845 24.95 -0.3 31.5 65 -6.1 21.1
07:05 1016 30 845 24.95 -0.3 31.5 66 -5.9 21.3
07:10 1016 30 845 24.95 -0.2 31.6 64 -6.2 20.8
07:15 1016 30 845 24.95 0.2 32.3 62 -6.3 20.6
07:20 1016 30 845 24.95 0.4 32.7 64 -5.7 21.7
07:25 1016 30 845 24.95 0.4 32.8 62 -6 21.2
07:30 1016 30 845 24.95 0.3 32.5 63 -6 21.3
07:35 1016 30 845 24.95 0.5 33 59 -6.5 20.3
07:40 1016 30 845 24.95 0.7 33.3 57 -6.8 19.8
07:45 1016 30 845 24.95 0.4 32.7 58 -6.9 19.6
07:50 1016 30 845 24.95 0.7 33.3 56 -7 19.4
07:55 1016 30 845 24.95 1.3 34.4 56 -6.6 20.2
08:00 1016 30 845 24.95 0.9 33.7 57 -6.6 20.2
08:05 1016 30 845 24.95 0.6 33 58 -6.8 19.7
08:10 1016 30 845 24.95 0.7 33.3 58 -6.6 20.2
08:15 1016 30 845 24.95 1.1 34 55 -6.9 19.7
08:20 1016 30 845 24.95 0.8 33.5 57 -6.8 19.7
08:25 1016 30 845 24.95 0.7 33.3 52 -8.1 17.4
08:30 1016 30 845 24.95 1.1 33.9 51 -7.9 17.8
08:35 1016 30 845 24.95 1.1 34.1 52 -7.8 18
08:40 1016 30 845 24.95 1.1 34 53 -7.5 18.5
08:45 1016 30 845 24.95 1.3 34.3 59 -5.8 21.6
08:50 1016 30 846 24.98 1.2 34.1 57 -6.4 20.4
08:55 1016 30 845 24.95 1.2 34.2 57 -6.3 20.7
09:00 1016 30 845 24.95 1.3 34.3 59 -5.8 21.6
09:05 1016 30 846 24.98 1.9 35.4 56 -5.9 21.4
09:10 1016 30 846 24.98 1.8 35.2 54 -6.6 20.1
09:15 1016 30 846 24.98 1.3 34.3 58 -6 21.2
09:20 1016 30 845 24.95 1.4 34.5 59 -5.8 21.5
09:25 1016 30 845 24.95 2.1 35.8 55 -6.1 21
09:30 1016 30 845 24.95 2.1 35.7 57 -5.5 22.1
09:35 1016 30 846 24.98 2 35.7 54 -6.3 20.6
09:40 1016 30 845 24.95 2.3 36.2 54 -5.9 21.3
09:45 1016 30 845 24.95 2.5 36.4 53 -6.1 21
09:50 1016 30 845 24.95 2.7 36.9 52 -6.3 20.7
09:55 1016 30 845 24.95 3.1 37.5 49 -6.5 20.2
10:00 1016 30 845 24.95 3.5 38.4 49 -6.3 20.7
10:05 1016 30 845 24.95 3.6 38.4 49 -6.1 21.1
10:10 1016 30 845 24.95 2.9 37.2 47 -7.3 18.9
10:15 1016 30 845 24.95 3 37.3 50 -6.4 20.4
10:20 1016 30 845 24.95 2.8 37.1 52 -6.1 21.1
10:25 1016 30 845 24.95 3.3 37.9 50 -6.2 20.9
10:30 1016 30 845 24.95 4.1 39.3 41 -8 17.6
10:35 1016 30 845 24.95 4.6 40.4 39 -8.2 17.3
10:40 1016 30 845 24.95 4.6 40.2 41 -7.5 18.5
10:45 1016 30 845 24.95 4.4 40 43 -7.2 19.1
10:50 1016 30 845 24.95 4.1 39.5 44 -7.1 19.3
10:55 1016 30 845 24.95 4.8 40.6 42 -7 19.5
11:00 1016 30 845 24.95 4.9 40.8 43 -6.7 19.9
11:05 1016 30 845 24.95 4.1 39.4 44 -7 19.3
11:10 1016 30 845 24.95 3.7 38.6 44 -7.6 18.4
11:15 1016 30 845 24.95 3.6 38.6 42 -8.2 17.3
11:20 1016 30 845 24.95 3.5 38.3 42 -8.2 17.2
11:25 1016 30 845 24.95 3.6 38.5 44 -7.4 18.6
11:30 1016 30 845 24.95 3.5 38.3 48 -6.6 20.1
11:35 1015 29.97 845 24.95 3.5 38.3 44 -7.6 18.4
11:40 1015 29.97 845 24.95 3.7 38.7 45 -7.2 19
11:45 1015 29.97 845 24.95 3.6 38.4 46 -7.1 19.2
11:50 1015 29.97 845 24.95 3.2 37.7 44 -8 17.7
11:55 1015 29.97 845 24.95 3.3 37.9 44 -7.9 17.8
12:00 1015 29.97 845 24.95 3.3 38 42 -8.3 17.1
12:05 1015 29.97 845 24.95 3.3 37.9 45 -7.6 18.4
12:10 1015 29.97 845 24.95 2.9 37.2 50 -6.5 20.2
12:15 1015 29.97 844 24.92 2.6 36.7 48 -7.4 18.8
12:20 1015 29.97 844 24.92 2.6 36.6 49 -7 19.4
12:25 1015 29.97 844 24.92 2.2 35.9 54 -6.1 20.9
12:30 1015 29.97 844 24.92 2.2 36 55 -5.8 21.5
12:35 1015 29.97 844 24.92 2.6 36.6 53 -6.1 20.9
12:40 1015 29.97 844 24.92 2.9 37.1 47 -7.4 18.8
12:45 1015 29.97 844 24.92 2.9 37.2 49 -6.8 19.7
12:50 1015 29.97 844 24.92 3 37.4 50 -6.5 20.4
12:55 1015 29.97 844 24.92 2.9 37.2 52 -6.1 21.1
13:00 1015 29.97 844 24.92 2.5 36.5 49 -7 19.4
13:05 1015 29.97 844 24.92 2.6 36.6 49 -7 19.3
13:10 1015 29.97 844 24.92 2.4 36.4 49 -7.3 18.8
13:15 1015 29.97 844 24.92 2.5 36.5 49 -7 19.3
13:20 1015 29.97 844 24.92 2.9 37.3 49 -6.7 20
13:25 1015 29.97 844 24.92 3.1 37.5 52 -5.8 21.6
13:30 1015 29.97 844 24.92 2.6 36.6 53 -6.1 21
13:35 1015 29.97 844 24.92 2.6 36.7 49 -7 19.4
13:40 1015 29.97 844 24.92 2.6 36.8 51 -6.5 20.3
13:45 1015 29.97 844 24.92 3 37.4 50 -6.4 20.4
13:50 1015 29.97 844 24.92 3.7 38.6 48 -6.5 20.3
13:55 1015 29.97 844 24.92 3.7 38.7 47 -6.5 20.3
14:00 1015 29.97 844 24.92 4 39.1 43 -7.4 18.6
14:05 1015 29.97 844 24.92 4.3 39.8 41 -7.7 18.1
14:10 1015 29.97 844 24.92 4.2 39.5 43 -7.5 18.6
14:15 1015 29.97 844 24.92 4.1 39.4 43 -7.4 18.6
14:20 1015 29.97 844 24.92 4.2 39.5 42 -7.7 18.1
14:25 1015 29.97 845 24.95 4.5 40.1 40 -7.9 17.8
14:30 1015 29.97 845 24.95 4.3 39.7 40 -8.2 17.2
14:35 1015 29.97 845 24.95 4.4 39.9 38 -8.6 16.4
14:40 1015 29.97 845 24.95 3.9 39 37 -9.7 14.6
14:45 1015 29.97 845 24.95 3.8 38.9 37 -9.6 14.8
14:50 1015 29.97 845 24.95 3.8 38.8 41 -8.2 17.3
14:55 1015 29.97 845 24.95 3.6 38.4 43 -8 17.6
15:00 1016 30 845 24.95 3.3 38 44 -7.6 18.3
15:05 1015 29.97 845 24.95 3.1 37.6 44 -8 17.5
15:10 1015 29.97 845 24.95 2.9 37.2 43 -8.6 16.6
15:15 1015 29.97 845 24.95 2.9 37.2 45 -7.9 17.8
15:20 1015 29.97 845 24.95 2.6 36.7 46 -8 17.6
15:25 1016 30 845 24.95 2.3 36.1 51 -6.8 19.8
15:30 1016 30 845 24.95 1.7 35.1 54 -6.6 20.2
15:35 1016 30 845 24.95 1.5 34.6 52 -7.2 19
15:40 1016 30 845 24.95 1.6 34.8 50 -7.7 18.1
15:45 1016 30 845 24.95 1.5 34.7 50 -7.8 17.9
15:50 1016 30 845 24.95 1.6 34.8 50 -7.8 17.9
15:55 1016 30 845 24.95 1.6 34.9 59 -5.6 21.9
16:00 1016 30 845 24.95 1 33.8 67 -4.4 24
16:05 1016 30 845 24.95 0.7 33.3 66 -5 23
16:10 1016 30 845 24.95 1.1 33.9 61 -5.7 21.8
16:15 1016 30 845 24.95 1.7 35.1 56 -6 21.2
16:20 1016 30 845 24.95 2.2 36 48 -7.6 18.3
16:25 1016 30 845 24.95 2.6 36.7 44 -8.6 16.5
16:30 1016 30 845 24.95 2.8 37 44 -8.2 17.2
16:35 1016 30 845 24.95 3.2 37.7 44 -7.9 17.8
16:40 1016 30 845 24.95 3 37.5 40 -9.2 15.4
16:45 1016 30 845 24.95 2.9 37.2 39 -9.8 14.3
16:50 1016 30 845 24.95 3.4 38 39 -9.3 15.2
16:55 1016 30 845 24.95 3.8 38.8 38 -9.2 15.4
17:00 1016 30 845 24.95 3.5 38.2 39 -9.3 15.2
17:05 1016 30 845 24.95 3.1 37.5 40 -9.3 15.3
17:10 1016 30 845 24.95 2.9 37.2 41 -9 15.8
17:15 1016 30 845 24.95 2.9 37.2 44 -8.3 17.1
17:20 1016 30 845 24.95 2.9 37.3 44 -8.1 17.3
17:25 1016 30 845 24.95 2.8 37.1 42 -9 15.8
17:30 1016 30 845 24.95 2.8 37.1 43 -8.6 16.5
17:35 1016 30 845 24.95 2.9 37.2 42 -8.7 16.4
17:40 1016 30 845 24.95 2.6 36.7 40 -9.5 14.9
17:45 1016 30 845 24.95 2.6 36.8 43 -8.9 16
17:50 1016 30 845 24.95 2.7 36.8 44 -8.4 16.8
17:55 1016 30 845 24.95 2.7 36.8 41 -9.4 15
18:00 1016 30 845 24.95 2.7 36.9 42 -9 15.8
18:05 1016 30 845 24.95 2.7 36.9 43 -8.7 16.4
18:10 1016 30 845 24.95 2.6 36.7 45 -8.2 17.3
18:15 1016 30 845 24.95 2.3 36.2 47 -7.8 18
18:20 1016 30 845 24.95 2 35.6 50 -7.4 18.7
18:25 1016 30 845 24.95 1.9 35.5 49 -7.6 18.3
18:30 1016 30 845 24.95 1.9 35.4 49 -7.6 18.3
18:35 1016 30 845 24.95 2.1 35.9 48 -7.7 18.2
18:40 1016 30 845 24.95 2.1 35.7 49 -7.7 18.1
18:45 1016 30 845 24.95 2.1 35.7 48 -7.9 17.8
18:50 1016 30 845 24.95 2.1 35.8 48 -7.8 18
18:55 1016 30 845 24.95 2.2 35.9 49 -7.6 18.4
19:00 1016 30 845 24.95 2.1 35.7 49 -7.6 18.3
19:05 1016 30 845 24.95 2 35.6 47 -8.2 17.2
19:10 1016 30 845 24.95 2.1 35.8 47 -8.1 17.4
19:15 1016 30 846 24.98 2 35.6 48 -8 17.7
19:20 1016 30 846 24.98 1.8 35.3 48 -8.1 17.5
19:25 1016 30 846 24.98 1.7 35.1 48 -8 17.5
19:30 1016 30 846 24.98 1.5 34.7 50 -7.8 18
19:35 1017 30.03 846 24.98 1.4 34.4 51 -7.8 18
19:40 1017 30.03 846 24.98 1.3 34.4 51 -7.7 18.1
19:45 1017 30.03 846 24.98 1.3 34.3 51 -7.7 18.2
19:50 1017 30.03 846 24.98 1.2 34.1 53 -7.4 18.6
19:55 1017 30.03 846 24.98 1 33.8 54 -7.2 19
20:00 1017 30.03 846 24.98 1 33.8 54 -7.4 18.7
20:05 1017 30.03 846 24.98 0.9 33.6 53 -7.6 18.4
20:10 1017 30.03 846 24.98 0.8 33.4 53 -7.7 18.1
20:15 1017 30.03 846 24.98 0.8 33.5 51 -8.2 17.2
20:20 1017 30.03 846 24.98 0.9 33.6 52 -8 17.7
20:25 1017 30.03 846 24.98 0.8 33.4 54 -7.6 18.3
20:30 1017 30.03 846 24.98 0.6 33.1 55 -7.5 18.5
20:35 1017 30.03 846 24.98 0.4 32.8 55 -7.6 18.4
20:40 1017 30.03 846 24.98 0.4 32.7 53 -8.1 17.4
20:45 1017 30.03 846 24.98 0.5 32.8 53 -7.9 17.7
20:50 1017 30.03 846 24.98 0.5 32.8 53 -8.1 17.3
20:55 1017 30.03 846 24.98 0.4 32.7 53 -8.1 17.5
21:00 1017 30.03 846 24.98 0.3 32.6 54 -8 17.6
21:05 1017 30.03 846 24.98 0.1 32.2 55 -7.9 17.8
21:10 1017 30.03 846 24.98 0.1 32.2 55 -8 17.6
21:15 1017 30.03 846 24.98 -0.1 31.9 57 -7.6 18.3
21:20 1017 30.03 846 24.98 -0.2 31.6 54 -8.3 17
21:25 1017 30.03 846 24.98 0 32.1 55 -8.1 17.5
21:30 1017 30.03 846 24.98 0.2 32.4 54 -7.9 17.7
21:35 1017 30.03 846 24.98 0.3 32.6 52 -8.3 17
21:40 1017 30.03 846 24.98 0.4 32.8 53 -8.1 17.4
21:45 1017 30.03 846 24.98 0.5 32.9 52 -8.3 17.1
21:50 1017 30.03 846 24.98 0.5 32.8 52 -8.2 17.3
21:55 1017 30.03 846 24.98 0.2 32.4 53 -8.2 17.2
22:00 1017 30.03 846 24.98 0 32.1 53 -8.4 16.9
22:05 1017 30.03 846 24.98 0 32 54 -8.3 17.1
22:10 1017 30.03 846 24.98 -0.1 31.9 54 -8.4 16.8
22:15 1017 30.03 846 24.98 -0.1 31.7 57 -7.7 18.1
22:20 1017 30.03 846 24.98 -0.4 31.2 58 -7.7 18.1
22:25 1017 30.03 846 24.98 -0.6 31 61 -7.1 19.2
22:30 1017 30.03 846 24.98 -0.7 30.7 61 -7.4 18.7
22:35 1017 30.03 846 24.98 -0.7 30.8 61 -7.4 18.7
22:40 1017 30.03 847 25.01 -0.6 30.9 59 -7.6 18.4
22:45 1017 30.03 847 25.01 -0.4 31.3 58 -7.7 18.2
22:50 1017 30.03 847 25.01 -0.3 31.4 57 -7.9 17.9
22:55 1017 30.03 847 25.01 -0.4 31.3 56 -8.1 17.5
23:00 1017 30.03 847 25.01 -0.5 31.1 56 -8.2 17.3
23:05 1017 30.03 847 25.01 -0.6 31 57 -8.1 17.4
23:10 1017 30.03 847 25.01 -0.6 30.9 58 -7.9 17.7
23:15 1017 30.03 847 25.01 -0.7 30.7 58 -8 17.6
23:20 1017 30.03 847 25.01 -0.8 30.5 59 -7.9 17.7
23:25 1017 30.03 847 25.01 -0.8 30.5 58 -8.2 17.3
23:30 1017 30.03 847 25.01 -0.9 30.4 58 -8.2 17.2
23:35 1017 30.03 847 25.01 -1 30.3 57 -8.5 16.8
23:40 1017 30.03 847 25.01 -0.9 30.3 56 -8.7 16.3
23:45 1017 30.03 847 25.01 -0.9 30.4 55 -8.7 16.3
23:50 1017 30.03 847 25.01 -0.9 30.3 56 -8.6 16.5
23:55 1017 30.03 847 25.01 -1.2 29.8 57 -8.6 16.5
24:00 1017 30.03 847 25.01 -1.5 29.4 58 -8.7 16.4